sensor_id;sensor_type;location;lat;lon;timestamp;temperature;humidity
56044;DHT22;41912;51.022;3.664;2023-04-28T00:01:10;12.90;99.90
56044;DHT22;41912;51.022;3.664;2023-04-28T00:03:36;12.90;99.90
56044;DHT22;41912;51.022;3.664;2023-04-28T00:06:02;12.90;99.90
56044;DHT22;41912;51.022;3.664;2023-04-28T00:08:29;12.90;99.90
56044;DHT22;41912;51.022;3.664;2023-04-28T00:10:54;12.90;99.90
56044;DHT22;41912;51.022;3.664;2023-04-28T00:13:20;12.90;99.90
56044;DHT22;41912;51.022;3.664;2023-04-28T00:15:46;12.90;99.90
56044;DHT22;41912;51.022;3.664;2023-04-28T00:18:11;13.00;99.90
56044;DHT22;41912;51.022;3.664;2023-04-28T00:20:37;13.00;99.90
56044;DHT22;41912;51.022;3.664;2023-04-28T00:23:02;12.90;99.90
56044;DHT22;41912;51.022;3.664;2023-04-28T00:25:28;13.00;99.90
56044;DHT22;41912;51.022;3.664;2023-04-28T00:27:54;13.00;99.90
56044;DHT22;41912;51.022;3.664;2023-04-28T00:30:19;13.00;99.90
56044;DHT22;41912;51.022;3.664;2023-04-28T00:32:45;13.00;99.90
56044;DHT22;41912;51.022;3.664;2023-04-28T00:35:11;13.00;99.90
56044;DHT22;41912;51.022;3.664;2023-04-28T00:37:37;13.00;99.90
56044;DHT22;41912;51.022;3.664;2023-04-28T00:40:03;12.90;99.90
56044;DHT22;41912;51.022;3.664;2023-04-28T00:42:29;12.90;99.90
56044;DHT22;41912;51.022;3.664;2023-04-28T00:44:56;13.00;99.90
56044;DHT22;41912;51.022;3.664;2023-04-28T00:47:22;13.00;99.90
56044;DHT22;41912;51.022;3.664;2023-04-28T00:49:47;13.00;99.90
56044;DHT22;41912;51.022;3.664;2023-04-28T00:52:14;13.00;99.90
56044;DHT22;41912;51.022;3.664;2023-04-28T00:54:40;13.00;99.90
56044;DHT22;41912;51.022;3.664;2023-04-28T00:57:07;13.00;99.90
56044;DHT22;41912;51.022;3.664;2023-04-28T00:59:34;13.00;99.90
56044;DHT22;41912;51.022;3.664;2023-04-28T01:01:59;13.00;99.90
56044;DHT22;41912;51.022;3.664;2023-04-28T01:04:26;12.90;99.90
56044;DHT22;41912;51.022;3.664;2023-04-28T01:06:54;12.90;99.90
56044;DHT22;41912;51.022;3.664;2023-04-28T01:09:20;12.90;99.90
56044;DHT22;41912;51.022;3.664;2023-04-28T01:11:46;12.90;99.90
56044;DHT22;41912;51.022;3.664;2023-04-28T01:14:12;12.90;99.90
56044;DHT22;41912;51.022;3.664;2023-04-28T01:16:38;12.90;99.90
56044;DHT22;41912;51.022;3.664;2023-04-28T01:19:06;12.80;99.90
56044;DHT22;41912;51.022;3.664;2023-04-28T01:21:33;12.70;99.90
56044;DHT22;41912;51.022;3.664;2023-04-28T01:23:59;12.60;99.90
56044;DHT22;41912;51.022;3.664;2023-04-28T01:26:25;12.50;99.90
56044;DHT22;41912;51.022;3.664;2023-04-28T01:28:51;12.30;99.90
56044;DHT22;41912;51.022;3.664;2023-04-28T01:31:16;12.30;99.90
56044;DHT22;41912;51.022;3.664;2023-04-28T01:33:42;12.30;99.90
56044;DHT22;41912;51.022;3.664;2023-04-28T01:36:08;12.30;99.90
56044;DHT22;41912;51.022;3.664;2023-04-28T01:38:34;12.20;99.90
56044;DHT22;41912;51.022;3.664;2023-04-28T01:40:59;12.20;99.90
56044;DHT22;41912;51.022;3.664;2023-04-28T01:43:27;12.10;99.90
56044;DHT22;41912;51.022;3.664;2023-04-28T01:45:52;12.20;99.90
56044;DHT22;41912;51.022;3.664;2023-04-28T01:48:18;12.20;99.90
56044;DHT22;41912;51.022;3.664;2023-04-28T01:50:43;12.30;99.90
56044;DHT22;41912;51.022;3.664;2023-04-28T01:53:09;12.40;99.90
56044;DHT22;41912;51.022;3.664;2023-04-28T01:55:37;12.40;99.90
56044;DHT22;41912;51.022;3.664;2023-04-28T01:58:02;12.40;99.90
56044;DHT22;41912;51.022;3.664;2023-04-28T02:00:28;12.40;99.90
56044;DHT22;41912;51.022;3.664;2023-04-28T02:02:54;12.40;99.90
56044;DHT22;41912;51.022;3.664;2023-04-28T02:05:19;12.40;99.90
56044;DHT22;41912;51.022;3.664;2023-04-28T02:07:45;12.40;99.90
56044;DHT22;41912;51.022;3.664;2023-04-28T02:10:11;12.40;99.90
56044;DHT22;41912;51.022;3.664;2023-04-28T02:12:36;12.40;99.90
56044;DHT22;41912;51.022;3.664;2023-04-28T02:15:02;12.30;99.90
56044;DHT22;41912;51.022;3.664;2023-04-28T02:17:31;12.40;99.90
56044;DHT22;41912;51.022;3.664;2023-04-28T02:19:56;12.40;99.90
56044;DHT22;41912;51.022;3.664;2023-04-28T02:22:22;12.40;99.90
56044;DHT22;41912;51.022;3.664;2023-04-28T02:24:48;12.40;99.90
56044;DHT22;41912;51.022;3.664;2023-04-28T02:27:14;12.40;99.90
56044;DHT22;41912;51.022;3.664;2023-04-28T02:29:40;12.40;99.90
56044;DHT22;41912;51.022;3.664;2023-04-28T02:32:06;12.40;99.90
56044;DHT22;41912;51.022;3.664;2023-04-28T02:34:32;12.40;99.90
56044;DHT22;41912;51.022;3.664;2023-04-28T02:36:58;12.50;99.90
56044;DHT22;41912;51.022;3.664;2023-04-28T02:39:23;12.50;99.90
56044;DHT22;41912;51.022;3.664;2023-04-28T02:41:52;12.50;99.90
56044;DHT22;41912;51.022;3.664;2023-04-28T02:44:18;12.50;99.90
56044;DHT22;41912;51.022;3.664;2023-04-28T02:46:44;12.50;99.90
56044;DHT22;41912;51.022;3.664;2023-04-28T02:49:10;12.50;99.90
56044;DHT22;41912;51.022;3.664;2023-04-28T02:51:35;12.50;99.90
56044;DHT22;41912;51.022;3.664;2023-04-28T02:54:01;12.50;99.90
56044;DHT22;41912;51.022;3.664;2023-04-28T02:56:27;12.40;99.90
56044;DHT22;41912;51.022;3.664;2023-04-28T02:58:54;12.40;99.90
56044;DHT22;41912;51.022;3.664;2023-04-28T03:01:20;12.40;99.90
56044;DHT22;41912;51.022;3.664;2023-04-28T03:03:45;12.40;99.90
56044;DHT22;41912;51.022;3.664;2023-04-28T03:06:11;12.40;99.90
56044;DHT22;41912;51.022;3.664;2023-04-28T03:08:36;12.40;99.90
56044;DHT22;41912;51.022;3.664;2023-04-28T03:11:02;12.40;99.90
56044;DHT22;41912;51.022;3.664;2023-04-28T03:13:28;12.50;99.90
56044;DHT22;41912;51.022;3.664;2023-04-28T03:15:54;12.50;99.90
56044;DHT22;41912;51.022;3.664;2023-04-28T03:18:20;12.50;99.90
56044;DHT22;41912;51.022;3.664;2023-04-28T03:20:48;12.50;99.90
56044;DHT22;41912;51.022;3.664;2023-04-28T03:23:13;12.50;99.90
56044;DHT22;41912;51.022;3.664;2023-04-28T03:25:39;12.50;99.90
56044;DHT22;41912;51.022;3.664;2023-04-28T03:28:05;12.50;99.90
56044;DHT22;41912;51.022;3.664;2023-04-28T03:30:31;12.50;99.90
56044;DHT22;41912;51.022;3.664;2023-04-28T03:32:56;12.50;99.90
56044;DHT22;41912;51.022;3.664;2023-04-28T03:35:22;12.50;99.90
56044;DHT22;41912;51.022;3.664;2023-04-28T03:37:48;12.50;99.90
56044;DHT22;41912;51.022;3.664;2023-04-28T03:40:14;12.50;99.90
56044;DHT22;41912;51.022;3.664;2023-04-28T03:42:39;12.50;99.90
56044;DHT22;41912;51.022;3.664;2023-04-28T03:45:06;12.60;99.90
56044;DHT22;41912;51.022;3.664;2023-04-28T03:47:32;12.50;99.90
56044;DHT22;41912;51.022;3.664;2023-04-28T03:49:58;12.50;99.90
56044;DHT22;41912;51.022;3.664;2023-04-28T03:52:24;12.50;99.90
56044;DHT22;41912;51.022;3.664;2023-04-28T03:54:50;12.50;99.90
56044;DHT22;41912;51.022;3.664;2023-04-28T03:57:16;12.60;99.90
56044;DHT22;41912;51.022;3.664;2023-04-28T03:59:41;12.60;99.90
56044;DHT22;41912;51.022;3.664;2023-04-28T04:02:07;12.60;99.90
56044;DHT22;41912;51.022;3.664;2023-04-28T04:04:33;12.50;99.90
56044;DHT22;41912;51.022;3.664;2023-04-28T04:06:58;12.60;99.90
56044;DHT22;41912;51.022;3.664;2023-04-28T04:09:24;12.60;99.90
56044;DHT22;41912;51.022;3.664;2023-04-28T04:11:50;12.60;99.90
56044;DHT22;41912;51.022;3.664;2023-04-28T04:14:16;12.60;99.90
56044;DHT22;41912;51.022;3.664;2023-04-28T04:16:42;12.60;99.90
56044;DHT22;41912;51.022;3.664;2023-04-28T04:19:08;12.60;99.90
56044;DHT22;41912;51.022;3.664;2023-04-28T04:21:33;12.60;99.90
56044;DHT22;41912;51.022;3.664;2023-04-28T04:23:59;12.60;99.90
56044;DHT22;41912;51.022;3.664;2023-04-28T04:26:24;12.70;99.90
56044;DHT22;41912;51.022;3.664;2023-04-28T04:28:50;12.60;99.90
56044;DHT22;41912;51.022;3.664;2023-04-28T04:31:16;12.70;99.90
56044;DHT22;41912;51.022;3.664;2023-04-28T04:33:44;12.70;99.90
56044;DHT22;41912;51.022;3.664;2023-04-28T04:36:09;12.70;99.90
56044;DHT22;41912;51.022;3.664;2023-04-28T04:38:35;12.70;99.90
56044;DHT22;41912;51.022;3.664;2023-04-28T04:41:00;12.70;99.90
56044;DHT22;41912;51.022;3.664;2023-04-28T04:43:26;12.70;99.90
56044;DHT22;41912;51.022;3.664;2023-04-28T04:45:52;12.70;99.90
56044;DHT22;41912;51.022;3.664;2023-04-28T04:48:18;12.70;99.90
56044;DHT22;41912;51.022;3.664;2023-04-28T04:50:44;12.80;99.90
56044;DHT22;41912;51.022;3.664;2023-04-28T04:53:09;12.70;99.90
56044;DHT22;41912;51.022;3.664;2023-04-28T04:55:35;12.70;99.90
56044;DHT22;41912;51.022;3.664;2023-04-28T04:58:01;12.70;99.90
56044;DHT22;41912;51.022;3.664;2023-04-28T05:00:26;12.70;99.90
56044;DHT22;41912;51.022;3.664;2023-04-28T05:02:52;12.70;99.90
56044;DHT22;41912;51.022;3.664;2023-04-28T05:05:18;12.70;99.90
56044;DHT22;41912;51.022;3.664;2023-04-28T05:07:43;12.80;99.90
56044;DHT22;41912;51.022;3.664;2023-04-28T05:10:09;12.80;99.90
56044;DHT22;41912;51.022;3.664;2023-04-28T05:12:36;12.90;99.90
56044;DHT22;41912;51.022;3.664;2023-04-28T05:15:03;12.90;99.90
56044;DHT22;41912;51.022;3.664;2023-04-28T05:17:30;12.90;99.90
56044;DHT22;41912;51.022;3.664;2023-04-28T05:19:56;12.90;99.90
56044;DHT22;41912;51.022;3.664;2023-04-28T05:22:21;13.00;99.90
56044;DHT22;41912;51.022;3.664;2023-04-28T05:24:47;13.00;99.90
56044;DHT22;41912;51.022;3.664;2023-04-28T05:27:12;13.00;99.90
56044;DHT22;41912;51.022;3.664;2023-04-28T05:29:38;13.00;99.90
56044;DHT22;41912;51.022;3.664;2023-04-28T05:32:04;13.10;99.90
56044;DHT22;41912;51.022;3.664;2023-04-28T05:34:29;13.10;99.90
56044;DHT22;41912;51.022;3.664;2023-04-28T05:36:55;13.10;99.90
56044;DHT22;41912;51.022;3.664;2023-04-28T05:39:21;13.20;99.90
56044;DHT22;41912;51.022;3.664;2023-04-28T05:41:47;13.20;99.90
56044;DHT22;41912;51.022;3.664;2023-04-28T05:44:12;13.20;99.90
56044;DHT22;41912;51.022;3.664;2023-04-28T05:46:38;13.20;99.90
56044;DHT22;41912;51.022;3.664;2023-04-28T05:49:03;13.20;99.90
56044;DHT22;41912;51.022;3.664;2023-04-28T05:51:29;13.30;99.90
56044;DHT22;41912;51.022;3.664;2023-04-28T05:53:54;13.40;99.90
56044;DHT22;41912;51.022;3.664;2023-04-28T05:56:21;13.40;99.90
56044;DHT22;41912;51.022;3.664;2023-04-28T05:58:46;13.50;99.90
56044;DHT22;41912;51.022;3.664;2023-04-28T06:01:14;13.50;99.90
56044;DHT22;41912;51.022;3.664;2023-04-28T06:03:41;13.60;99.90
56044;DHT22;41912;51.022;3.664;2023-04-28T06:06:07;13.60;99.90
56044;DHT22;41912;51.022;3.664;2023-04-28T06:08:33;13.70;99.90
56044;DHT22;41912;51.022;3.664;2023-04-28T06:10:58;13.70;99.90
56044;DHT22;41912;51.022;3.664;2023-04-28T06:13:24;13.80;99.90
56044;DHT22;41912;51.022;3.664;2023-04-28T06:15:50;13.90;99.90
56044;DHT22;41912;51.022;3.664;2023-04-28T06:18:15;13.90;99.90
56044;DHT22;41912;51.022;3.664;2023-04-28T06:20:41;14.10;99.90
56044;DHT22;41912;51.022;3.664;2023-04-28T06:23:07;14.10;99.90
56044;DHT22;41912;51.022;3.664;2023-04-28T06:25:34;14.20;99.90
56044;DHT22;41912;51.022;3.664;2023-04-28T06:28:00;14.30;99.90
56044;DHT22;41912;51.022;3.664;2023-04-28T06:30:26;14.20;99.90
56044;DHT22;41912;51.022;3.664;2023-04-28T06:32:52;14.30;99.90
56044;DHT22;41912;51.022;3.664;2023-04-28T06:35:17;14.30;99.90
56044;DHT22;41912;51.022;3.664;2023-04-28T06:37:43;14.30;99.90
56044;DHT22;41912;51.022;3.664;2023-04-28T06:40:09;14.30;99.90
56044;DHT22;41912;51.022;3.664;2023-04-28T06:42:35;14.30;99.90
56044;DHT22;41912;51.022;3.664;2023-04-28T06:45:01;14.30;99.90
56044;DHT22;41912;51.022;3.664;2023-04-28T06:47:27;14.30;99.90
56044;DHT22;41912;51.022;3.664;2023-04-28T06:49:52;14.30;99.90
56044;DHT22;41912;51.022;3.664;2023-04-28T06:52:18;14.40;99.90
56044;DHT22;41912;51.022;3.664;2023-04-28T06:54:46;14.40;99.90
56044;DHT22;41912;51.022;3.664;2023-04-28T06:57:12;14.40;99.90
56044;DHT22;41912;51.022;3.664;2023-04-28T06:59:38;14.40;99.90
56044;DHT22;41912;51.022;3.664;2023-04-28T07:02:03;14.40;99.90
56044;DHT22;41912;51.022;3.664;2023-04-28T07:04:29;14.50;99.90
56044;DHT22;41912;51.022;3.664;2023-04-28T07:06:55;14.50;99.90
56044;DHT22;41912;51.022;3.664;2023-04-28T07:09:20;14.50;99.90
56044;DHT22;41912;51.022;3.664;2023-04-28T07:11:46;14.60;99.90
56044;DHT22;41912;51.022;3.664;2023-04-28T07:14:12;14.60;99.90
56044;DHT22;41912;51.022;3.664;2023-04-28T07:16:38;14.60;99.90
56044;DHT22;41912;51.022;3.664;2023-04-28T07:19:03;14.60;99.90
56044;DHT22;41912;51.022;3.664;2023-04-28T07:21:29;14.60;99.90
56044;DHT22;41912;51.022;3.664;2023-04-28T07:23:54;14.60;99.90
56044;DHT22;41912;51.022;3.664;2023-04-28T07:26:23;14.70;99.90
56044;DHT22;41912;51.022;3.664;2023-04-28T07:28:48;14.70;99.90
56044;DHT22;41912;51.022;3.664;2023-04-28T07:31:14;14.80;99.90
56044;DHT22;41912;51.022;3.664;2023-04-28T07:33:40;14.80;99.90
56044;DHT22;41912;51.022;3.664;2023-04-28T07:36:06;14.80;99.90
56044;DHT22;41912;51.022;3.664;2023-04-28T07:38:33;14.90;99.90
56044;DHT22;41912;51.022;3.664;2023-04-28T07:40:59;14.90;99.90
56044;DHT22;41912;51.022;3.664;2023-04-28T07:43:25;14.90;99.90
56044;DHT22;41912;51.022;3.664;2023-04-28T07:45:52;14.90;99.90
56044;DHT22;41912;51.022;3.664;2023-04-28T07:48:17;15.00;99.90
56044;DHT22;41912;51.022;3.664;2023-04-28T07:50:43;15.00;99.90
56044;DHT22;41912;51.022;3.664;2023-04-28T07:53:09;15.00;99.90
56044;DHT22;41912;51.022;3.664;2023-04-28T07:55:35;15.00;99.90
56044;DHT22;41912;51.022;3.664;2023-04-28T07:58:01;15.10;99.90
56044;DHT22;41912;51.022;3.664;2023-04-28T08:00:26;15.10;99.90
56044;DHT22;41912;51.022;3.664;2023-04-28T08:02:52;15.10;99.90
56044;DHT22;41912;51.022;3.664;2023-04-28T08:05:18;15.10;99.90
56044;DHT22;41912;51.022;3.664;2023-04-28T08:07:43;15.10;99.90
56044;DHT22;41912;51.022;3.664;2023-04-28T08:10:10;15.20;99.90
56044;DHT22;41912;51.022;3.664;2023-04-28T08:12:36;15.20;99.90
56044;DHT22;41912;51.022;3.664;2023-04-28T08:15:02;15.30;99.90
56044;DHT22;41912;51.022;3.664;2023-04-28T08:17:29;15.40;99.90
56044;DHT22;41912;51.022;3.664;2023-04-28T08:19:55;15.40;99.90
56044;DHT22;41912;51.022;3.664;2023-04-28T08:22:21;15.40;99.90
56044;DHT22;41912;51.022;3.664;2023-04-28T08:24:46;15.40;99.90
56044;DHT22;41912;51.022;3.664;2023-04-28T08:27:12;15.40;99.90
56044;DHT22;41912;51.022;3.664;2023-04-28T08:29:37;15.40;99.90
56044;DHT22;41912;51.022;3.664;2023-04-28T08:32:04;15.40;99.90
56044;DHT22;41912;51.022;3.664;2023-04-28T08:34:31;15.40;99.90
56044;DHT22;41912;51.022;3.664;2023-04-28T08:36:57;15.50;99.90
56044;DHT22;41912;51.022;3.664;2023-04-28T08:39:23;15.40;99.90
56044;DHT22;41912;51.022;3.664;2023-04-28T08:41:51;15.40;99.90
56044;DHT22;41912;51.022;3.664;2023-04-28T08:44:16;15.30;99.90
56044;DHT22;41912;51.022;3.664;2023-04-28T08:46:43;15.30;99.90
56044;DHT22;41912;51.022;3.664;2023-04-28T08:49:17;15.30;99.90
56044;DHT22;41912;51.022;3.664;2023-04-28T08:51:50;15.20;99.90
56044;DHT22;41912;51.022;3.664;2023-04-28T08:54:17;15.20;99.90
56044;DHT22;41912;51.022;3.664;2023-04-28T08:56:45;15.20;99.90
56044;DHT22;41912;51.022;3.664;2023-04-28T08:59:11;15.20;99.90
56044;DHT22;41912;51.022;3.664;2023-04-28T09:01:40;15.30;99.90
56044;DHT22;41912;51.022;3.664;2023-04-28T09:04:06;15.30;99.90
56044;DHT22;41912;51.022;3.664;2023-04-28T09:06:35;15.40;99.90
56044;DHT22;41912;51.022;3.664;2023-04-28T09:09:20;15.50;99.90
56044;DHT22;41912;51.022;3.664;2023-04-28T09:11:54;15.50;99.90
56044;DHT22;41912;51.022;3.664;2023-04-28T09:14:23;15.50;99.90
56044;DHT22;41912;51.022;3.664;2023-04-28T09:16:49;15.50;99.90
56044;DHT22;41912;51.022;3.664;2023-04-28T09:19:16;15.50;99.90
56044;DHT22;41912;51.022;3.664;2023-04-28T09:21:55;15.50;99.90
56044;DHT22;41912;51.022;3.664;2023-04-28T09:24:32;15.50;99.90
56044;DHT22;41912;51.022;3.664;2023-04-28T09:27:02;15.40;99.90
56044;DHT22;41912;51.022;3.664;2023-04-28T09:29:29;15.50;99.90
56044;DHT22;41912;51.022;3.664;2023-04-28T09:32:16;15.40;99.90
56044;DHT22;41912;51.022;3.664;2023-04-28T09:34:44;15.40;99.90
56044;DHT22;41912;51.022;3.664;2023-04-28T09:37:19;15.40;99.90
56044;DHT22;41912;51.022;3.664;2023-04-28T09:39:49;15.30;99.90
56044;DHT22;41912;51.022;3.664;2023-04-28T09:42:37;15.40;99.90
56044;DHT22;41912;51.022;3.664;2023-04-28T09:45:03;15.30;99.90
56044;DHT22;41912;51.022;3.664;2023-04-28T09:47:30;15.30;99.90
56044;DHT22;41912;51.022;3.664;2023-04-28T09:49:59;15.20;99.90
56044;DHT22;41912;51.022;3.664;2023-04-28T09:52:25;15.30;99.90
56044;DHT22;41912;51.022;3.664;2023-04-28T09:54:52;15.20;99.90
56044;DHT22;41912;51.022;3.664;2023-04-28T09:57:18;15.30;99.90
56044;DHT22;41912;51.022;3.664;2023-04-28T09:59:48;15.30;99.90
56044;DHT22;41912;51.022;3.664;2023-04-28T10:02:18;15.30;99.90
56044;DHT22;41912;51.022;3.664;2023-04-28T10:04:46;15.30;99.90
56044;DHT22;41912;51.022;3.664;2023-04-28T10:07:12;15.20;99.90
56044;DHT22;41912;51.022;3.664;2023-04-28T10:09:39;15.20;99.90
56044;DHT22;41912;51.022;3.664;2023-04-28T10:12:09;15.20;99.90
56044;DHT22;41912;51.022;3.664;2023-04-28T10:14:36;15.20;99.90
56044;DHT22;41912;51.022;3.664;2023-04-28T10:17:03;15.30;99.90
56044;DHT22;41912;51.022;3.664;2023-04-28T10:19:30;15.30;99.90
56044;DHT22;41912;51.022;3.664;2023-04-28T10:27:42;15.20;99.90
56044;DHT22;41912;51.022;3.664;2023-04-28T10:30:20;15.20;99.90
56044;DHT22;41912;51.022;3.664;2023-04-28T10:32:47;15.20;99.90
56044;DHT22;41912;51.022;3.664;2023-04-28T10:43:05;15.20;99.90
56044;DHT22;41912;51.022;3.664;2023-04-28T10:58:49;15.30;99.90
56044;DHT22;41912;51.022;3.664;2023-04-28T11:03:59;15.30;99.90
56044;DHT22;41912;51.022;3.664;2023-04-28T11:06:31;15.40;99.90
56044;DHT22;41912;51.022;3.664;2023-04-28T11:11:37;15.60;99.90
56044;DHT22;41912;51.022;3.664;2023-04-28T11:16:53;15.70;99.90
56044;DHT22;41912;51.022;3.664;2023-04-28T11:19:21;15.70;99.90
56044;DHT22;41912;51.022;3.664;2023-04-28T11:21:48;15.80;99.90
56044;DHT22;41912;51.022;3.664;2023-04-28T11:24:14;15.80;99.90
56044;DHT22;41912;51.022;3.664;2023-04-28T11:26:40;15.80;99.90
56044;DHT22;41912;51.022;3.664;2023-04-28T11:29:07;15.90;99.90
56044;DHT22;41912;51.022;3.664;2023-04-28T11:31:33;15.90;99.90
56044;DHT22;41912;51.022;3.664;2023-04-28T11:34:09;15.90;99.90
56044;DHT22;41912;51.022;3.664;2023-04-28T11:36:41;15.90;99.90
56044;DHT22;41912;51.022;3.664;2023-04-28T11:39:11;16.00;99.90
56044;DHT22;41912;51.022;3.664;2023-04-28T11:41:38;16.00;99.90
56044;DHT22;41912;51.022;3.664;2023-04-28T11:44:34;16.00;99.90
56044;DHT22;41912;51.022;3.664;2023-04-28T11:47:01;16.00;99.90
56044;DHT22;41912;51.022;3.664;2023-04-28T11:51:56;16.00;99.90
56044;DHT22;41912;51.022;3.664;2023-04-28T11:54:22;16.00;99.90
56044;DHT22;41912;51.022;3.664;2023-04-28T11:56:49;16.00;99.90
56044;DHT22;41912;51.022;3.664;2023-04-28T11:59:15;16.10;99.90
56044;DHT22;41912;51.022;3.664;2023-04-28T12:02:00;16.10;99.90
56044;DHT22;41912;51.022;3.664;2023-04-28T12:04:34;16.10;99.90
56044;DHT22;41912;51.022;3.664;2023-04-28T12:09:28;16.00;99.90
56044;DHT22;41912;51.022;3.664;2023-04-28T12:11:58;16.00;99.90
56044;DHT22;41912;51.022;3.664;2023-04-28T12:14:25;16.10;99.90
56044;DHT22;41912;51.022;3.664;2023-04-28T12:16:51;16.10;99.90
56044;DHT22;41912;51.022;3.664;2023-04-28T12:19:17;16.20;99.90
56044;DHT22;41912;51.022;3.664;2023-04-28T12:22:04;16.20;99.90
56044;DHT22;41912;51.022;3.664;2023-04-28T12:24:31;16.10;99.90
56044;DHT22;41912;51.022;3.664;2023-04-28T12:27:19;16.00;99.90
56044;DHT22;41912;51.022;3.664;2023-04-28T12:29:49;16.10;99.90
56044;DHT22;41912;51.022;3.664;2023-04-28T12:32:16;16.10;99.90
56044;DHT22;41912;51.022;3.664;2023-04-28T12:34:44;16.10;99.90
56044;DHT22;41912;51.022;3.664;2023-04-28T12:37:10;16.10;99.90
56044;DHT22;41912;51.022;3.664;2023-04-28T12:39:38;16.10;99.90
56044;DHT22;41912;51.022;3.664;2023-04-28T12:42:06;16.10;99.90
56044;DHT22;41912;51.022;3.664;2023-04-28T12:44:33;16.20;99.90
56044;DHT22;41912;51.022;3.664;2023-04-28T12:47:03;16.20;99.90
56044;DHT22;41912;51.022;3.664;2023-04-28T12:49:29;16.20;99.90
56044;DHT22;41912;51.022;3.664;2023-04-28T12:51:55;16.20;99.90
56044;DHT22;41912;51.022;3.664;2023-04-28T12:54:21;16.10;99.90
56044;DHT22;41912;51.022;3.664;2023-04-28T12:56:47;16.10;99.90
56044;DHT22;41912;51.022;3.664;2023-04-28T12:59:13;16.00;99.90
56044;DHT22;41912;51.022;3.664;2023-04-28T13:01:38;16.10;99.90
56044;DHT22;41912;51.022;3.664;2023-04-28T13:04:04;16.10;99.90
56044;DHT22;41912;51.022;3.664;2023-04-28T13:06:30;16.20;99.90
56044;DHT22;41912;51.022;3.664;2023-04-28T13:08:57;16.30;99.90
56044;DHT22;41912;51.022;3.664;2023-04-28T13:11:22;16.30;99.90
56044;DHT22;41912;51.022;3.664;2023-04-28T13:13:51;16.30;99.90
56044;DHT22;41912;51.022;3.664;2023-04-28T13:16:18;16.30;99.90
56044;DHT22;41912;51.022;3.664;2023-04-28T13:18:43;16.30;99.90
56044;DHT22;41912;51.022;3.664;2023-04-28T13:21:09;16.40;99.90
56044;DHT22;41912;51.022;3.664;2023-04-28T13:23:36;16.40;99.90
56044;DHT22;41912;51.022;3.664;2023-04-28T13:26:01;16.40;99.90
56044;DHT22;41912;51.022;3.664;2023-04-28T13:28:28;16.40;99.90
56044;DHT22;41912;51.022;3.664;2023-04-28T13:30:54;16.60;99.90
56044;DHT22;41912;51.022;3.664;2023-04-28T13:33:20;16.60;99.90
56044;DHT22;41912;51.022;3.664;2023-04-28T13:35:46;16.70;99.90
56044;DHT22;41912;51.022;3.664;2023-04-28T13:38:12;16.70;99.90
56044;DHT22;41912;51.022;3.664;2023-04-28T13:40:37;16.80;99.90
56044;DHT22;41912;51.022;3.664;2023-04-28T13:43:03;16.90;99.90
56044;DHT22;41912;51.022;3.664;2023-04-28T13:45:30;16.90;99.90
56044;DHT22;41912;51.022;3.664;2023-04-28T13:47:55;17.00;99.90
56044;DHT22;41912;51.022;3.664;2023-04-28T13:50:21;17.00;99.90
56044;DHT22;41912;51.022;3.664;2023-04-28T13:52:47;17.10;99.90
56044;DHT22;41912;51.022;3.664;2023-04-28T13:55:12;17.10;99.90
56044;DHT22;41912;51.022;3.664;2023-04-28T13:57:38;17.20;99.90
56044;DHT22;41912;51.022;3.664;2023-04-28T14:00:05;17.20;99.90
56044;DHT22;41912;51.022;3.664;2023-04-28T14:02:30;17.20;99.90
56044;DHT22;41912;51.022;3.664;2023-04-28T14:04:56;17.30;99.90
56044;DHT22;41912;51.022;3.664;2023-04-28T14:07:22;17.30;99.90
56044;DHT22;41912;51.022;3.664;2023-04-28T14:09:48;17.30;99.90
56044;DHT22;41912;51.022;3.664;2023-04-28T14:12:14;17.30;99.90
56044;DHT22;41912;51.022;3.664;2023-04-28T14:14:40;17.20;99.90
56044;DHT22;41912;51.022;3.664;2023-04-28T14:17:07;17.10;99.90
56044;DHT22;41912;51.022;3.664;2023-04-28T14:19:33;17.00;99.90
56044;DHT22;41912;51.022;3.664;2023-04-28T14:21:58;17.00;99.90
56044;DHT22;41912;51.022;3.664;2023-04-28T14:24:24;17.00;99.90
56044;DHT22;41912;51.022;3.664;2023-04-28T14:26:51;17.00;99.90
56044;DHT22;41912;51.022;3.664;2023-04-28T14:29:17;17.00;99.90
56044;DHT22;41912;51.022;3.664;2023-04-28T14:31:42;17.00;99.90
56044;DHT22;41912;51.022;3.664;2023-04-28T14:34:08;16.90;99.90
56044;DHT22;41912;51.022;3.664;2023-04-28T14:36:33;16.80;99.90
56044;DHT22;41912;51.022;3.664;2023-04-28T14:38:59;16.60;99.90
56044;DHT22;41912;51.022;3.664;2023-04-28T14:41:25;16.50;99.90
56044;DHT22;41912;51.022;3.664;2023-04-28T14:43:51;16.50;99.90
56044;DHT22;41912;51.022;3.664;2023-04-28T14:46:16;16.40;99.90
56044;DHT22;41912;51.022;3.664;2023-04-28T14:48:47;16.40;99.90
56044;DHT22;41912;51.022;3.664;2023-04-28T14:51:13;16.40;99.90
56044;DHT22;41912;51.022;3.664;2023-04-28T14:53:39;16.40;99.90
56044;DHT22;41912;51.022;3.664;2023-04-28T14:56:06;16.50;99.90
56044;DHT22;41912;51.022;3.664;2023-04-28T14:58:33;16.50;99.90
56044;DHT22;41912;51.022;3.664;2023-04-28T15:00:59;16.60;99.90
56044;DHT22;41912;51.022;3.664;2023-04-28T15:03:24;16.60;99.90
56044;DHT22;41912;51.022;3.664;2023-04-28T15:05:51;16.60;99.90
56044;DHT22;41912;51.022;3.664;2023-04-28T15:08:17;16.70;99.90
56044;DHT22;41912;51.022;3.664;2023-04-28T15:10:43;16.60;99.90
56044;DHT22;41912;51.022;3.664;2023-04-28T15:13:09;16.60;99.90
56044;DHT22;41912;51.022;3.664;2023-04-28T15:15:35;16.60;99.90
56044;DHT22;41912;51.022;3.664;2023-04-28T15:18:01;16.60;99.90
56044;DHT22;41912;51.022;3.664;2023-04-28T15:20:29;16.50;99.90
56044;DHT22;41912;51.022;3.664;2023-04-28T15:22:55;16.50;99.90
56044;DHT22;41912;51.022;3.664;2023-04-28T15:25:21;16.40;99.90
56044;DHT22;41912;51.022;3.664;2023-04-28T15:27:47;16.40;99.90
56044;DHT22;41912;51.022;3.664;2023-04-28T15:30:15;16.50;99.90
56044;DHT22;41912;51.022;3.664;2023-04-28T15:32:40;16.50;99.90
56044;DHT22;41912;51.022;3.664;2023-04-28T15:35:07;16.50;99.90
56044;DHT22;41912;51.022;3.664;2023-04-28T15:37:40;16.50;99.90
56044;DHT22;41912;51.022;3.664;2023-04-28T15:40:09;16.60;99.90
56044;DHT22;41912;51.022;3.664;2023-04-28T15:42:35;16.50;99.90
56044;DHT22;41912;51.022;3.664;2023-04-28T15:45:02;16.50;99.90
56044;DHT22;41912;51.022;3.664;2023-04-28T15:47:27;16.50;99.90
56044;DHT22;41912;51.022;3.664;2023-04-28T15:49:53;16.60;99.90
56044;DHT22;41912;51.022;3.664;2023-04-28T15:52:19;16.50;99.90
56044;DHT22;41912;51.022;3.664;2023-04-28T15:54:46;16.50;99.90
56044;DHT22;41912;51.022;3.664;2023-04-28T15:57:12;16.50;99.90
56044;DHT22;41912;51.022;3.664;2023-04-28T15:59:38;16.50;99.90
56044;DHT22;41912;51.022;3.664;2023-04-28T16:02:03;16.50;99.90
56044;DHT22;41912;51.022;3.664;2023-04-28T16:04:29;16.50;99.90
56044;DHT22;41912;51.022;3.664;2023-04-28T16:06:55;16.40;99.90